Terminal Aerodrome Forecast
Issued by NWS

Home | Current Version | Previous Version | Text Only | Print | Product List | Glossary On
Versions: 1 2 3 4 5 6 7 8 9 10 11 12 13 14 15 16 17 18 19 20 21
293
FTUS44 KBMX 231740
TAFTCL
TAF
KTCL 231740Z 2318/2418 14007KT P6SM OVC020
     FM232100 16007KT P6SM BKN035
     FM240100 14002KT P6SM SCT030
     FM241000 14002KT 5SM BR BKN006
     FM241600 18009KT P6SM SCT030=

USA.gov is the U.S. government's official web portal to all federal, state and local government web resources and services.